sensor_id;sensor_type;location;lat;lon;timestamp;temperature;humidity
63219;DHT22;49320;52.512;13.448;2023-07-09T00:01:53;23.90;45.40
63219;DHT22;49320;52.512;13.448;2023-07-09T00:04:21;24.00;41.80
63219;DHT22;49320;52.512;13.448;2023-07-09T00:09:17;24.10;40.60
63219;DHT22;49320;52.512;13.448;2023-07-09T00:11:46;24.20;46.00
63219;DHT22;49320;52.512;13.448;2023-07-09T00:14:15;23.90;46.10
63219;DHT22;49320;52.512;13.448;2023-07-09T00:16:44;24.20;45.80
63219;DHT22;49320;52.512;13.448;2023-07-09T00:19:18;24.00;46.60
63219;DHT22;49320;52.512;13.448;2023-07-09T00:21:49;23.90;41.10
63219;DHT22;49320;52.512;13.448;2023-07-09T00:26:47;23.70;43.60
63219;DHT22;49320;52.512;13.448;2023-07-09T00:29:16;24.10;46.00
63219;DHT22;49320;52.512;13.448;2023-07-09T00:31:43;23.90;46.70
63219;DHT22;49320;52.512;13.448;2023-07-09T00:34:12;23.90;41.60
63219;DHT22;49320;52.512;13.448;2023-07-09T00:36:41;23.80;43.90
63219;DHT22;49320;52.512;13.448;2023-07-09T00:39:16;23.60;46.80
63219;DHT22;49320;52.512;13.448;2023-07-09T00:41:45;23.60;43.50
63219;DHT22;49320;52.512;13.448;2023-07-09T00:49:37;23.80;41.70
63219;DHT22;49320;52.512;13.448;2023-07-09T00:52:24;23.80;41.80
63219;DHT22;49320;52.512;13.448;2023-07-09T00:54:58;23.80;41.80
63219;DHT22;49320;52.512;13.448;2023-07-09T00:57:29;23.60;47.00
63219;DHT22;49320;52.512;13.448;2023-07-09T01:00:01;23.60;42.30
63219;DHT22;49320;52.512;13.448;2023-07-09T01:02:39;23.90;47.00
63219;DHT22;49320;52.512;13.448;2023-07-09T01:05:12;24.00;45.30
63219;DHT22;49320;52.512;13.448;2023-07-09T01:07:41;23.70;44.10
63219;DHT22;49320;52.512;13.448;2023-07-09T01:10:15;23.80;42.20
63219;DHT22;49320;52.512;13.448;2023-07-09T01:12:45;23.50;47.30
63219;DHT22;49320;52.512;13.448;2023-07-09T01:15:14;23.90;45.70
63219;DHT22;49320;52.512;13.448;2023-07-09T01:20:17;23.40;43.60
63219;DHT22;49320;52.512;13.448;2023-07-09T01:22:49;23.70;42.60
63219;DHT22;49320;52.512;13.448;2023-07-09T01:25:17;23.90;48.00
63219;DHT22;49320;52.512;13.448;2023-07-09T01:27:46;23.60;48.00
63219;DHT22;49320;52.512;13.448;2023-07-09T01:30:21;23.60;42.80
63219;DHT22;49320;52.512;13.448;2023-07-09T01:32:51;23.50;42.90
63219;DHT22;49320;52.512;13.448;2023-07-09T01:35:23;23.30;48.30
63219;DHT22;49320;52.512;13.448;2023-07-09T01:40:21;23.50;43.20
63219;DHT22;49320;52.512;13.448;2023-07-09T01:43:00;23.50;43.20
63219;DHT22;49320;52.512;13.448;2023-07-09T01:47:56;23.70;49.00
63219;DHT22;49320;52.512;13.448;2023-07-09T01:50:24;23.10;48.90
63219;DHT22;49320;52.512;13.448;2023-07-09T01:52:53;23.30;43.50
63219;DHT22;49320;52.512;13.448;2023-07-09T01:55:21;23.10;46.10
63219;DHT22;49320;52.512;13.448;2023-07-09T02:00:18;23.00;49.10
63219;DHT22;49320;52.512;13.448;2023-07-09T02:02:46;23.10;44.10
63219;DHT22;49320;52.512;13.448;2023-07-09T02:10:14;23.10;44.10
63219;DHT22;49320;52.512;13.448;2023-07-09T02:15:09;23.20;49.60
63219;DHT22;49320;52.512;13.448;2023-07-09T02:17:37;23.40;50.00
63219;DHT22;49320;52.512;13.448;2023-07-09T02:20:04;23.30;49.80
63219;DHT22;49320;52.512;13.448;2023-07-09T02:22:34;23.10;49.70
63219;DHT22;49320;52.512;13.448;2023-07-09T02:25:03;23.30;45.20
63219;DHT22;49320;52.512;13.448;2023-07-09T02:27:32;23.20;50.10
63219;DHT22;49320;52.512;13.448;2023-07-09T02:30:00;22.90;50.10
63219;DHT22;49320;52.512;13.448;2023-07-09T02:32:27;22.80;46.70
63219;DHT22;49320;52.512;13.448;2023-07-09T02:34:55;22.80;44.80
63219;DHT22;49320;52.512;13.448;2023-07-09T02:37:24;23.00;46.50
63219;DHT22;49320;52.512;13.448;2023-07-09T02:39:53;22.90;44.80
63219;DHT22;49320;52.512;13.448;2023-07-09T02:42:21;22.90;44.80
63219;DHT22;49320;52.512;13.448;2023-07-09T02:44:49;23.20;48.70
63219;DHT22;49320;52.512;13.448;2023-07-09T02:57:06;22.70;50.60
63219;DHT22;49320;52.512;13.448;2023-07-09T03:02:01;22.80;47.60
63219;DHT22;49320;52.512;13.448;2023-07-09T03:04:29;23.00;49.00
63219;DHT22;49320;52.512;13.448;2023-07-09T03:06:57;23.00;50.60
63219;DHT22;49320;52.512;13.448;2023-07-09T03:14:22;22.70;50.70
63219;DHT22;49320;52.512;13.448;2023-07-09T03:16:49;22.50;49.60
63219;DHT22;49320;52.512;13.448;2023-07-09T03:21:43;22.40;48.00
63219;DHT22;49320;52.512;13.448;2023-07-09T03:26:37;22.60;51.00
63219;DHT22;49320;52.512;13.448;2023-07-09T03:29:04;22.80;51.10
63219;DHT22;49320;52.512;13.448;2023-07-09T03:31:31;22.40;49.00
63219;DHT22;49320;52.512;13.448;2023-07-09T03:34:01;22.50;51.20
63219;DHT22;49320;52.512;13.448;2023-07-09T03:36:29;23.00;50.80
63219;DHT22;49320;52.512;13.448;2023-07-09T03:41:24;22.70;51.50
63219;DHT22;49320;52.512;13.448;2023-07-09T03:43:51;22.40;51.40
63219;DHT22;49320;52.512;13.448;2023-07-09T03:46:20;22.90;51.60
63219;DHT22;49320;52.512;13.448;2023-07-09T03:56:11;22.70;51.60
63219;DHT22;49320;52.512;13.448;2023-07-09T04:01:06;22.60;47.70
63219;DHT22;49320;52.512;13.448;2023-07-09T04:03:33;22.80;51.50
63219;DHT22;49320;52.512;13.448;2023-07-09T04:10:59;22.60;51.70
63219;DHT22;49320;52.512;13.448;2023-07-09T04:13:27;22.50;51.50
63219;DHT22;49320;52.512;13.448;2023-07-09T04:15:56;22.80;46.50
63219;DHT22;49320;52.512;13.448;2023-07-09T04:18:24;22.90;47.80
63219;DHT22;49320;52.512;13.448;2023-07-09T04:20:51;23.10;51.60
63219;DHT22;49320;52.512;13.448;2023-07-09T04:23:19;22.90;46.40
63219;DHT22;49320;52.512;13.448;2023-07-09T04:28:15;22.90;46.20
63219;DHT22;49320;52.512;13.448;2023-07-09T04:30:51;22.70;51.20
63219;DHT22;49320;52.512;13.448;2023-07-09T04:33:19;23.00;46.20
63219;DHT22;49320;52.512;13.448;2023-07-09T04:35:48;23.20;51.40
63219;DHT22;49320;52.512;13.448;2023-07-09T04:38:15;23.10;46.10
63219;DHT22;49320;52.512;13.448;2023-07-09T04:40:43;23.20;50.20
63219;DHT22;49320;52.512;13.448;2023-07-09T04:43:10;23.10;51.00
63219;DHT22;49320;52.512;13.448;2023-07-09T04:45:37;23.00;50.80
63219;DHT22;49320;52.512;13.448;2023-07-09T04:48:04;23.50;46.00
63219;DHT22;49320;52.512;13.448;2023-07-09T04:50:31;23.20;50.70
63219;DHT22;49320;52.512;13.448;2023-07-09T04:52:59;23.20;48.20
63219;DHT22;49320;52.512;13.448;2023-07-09T05:07:43;23.50;50.10
63219;DHT22;49320;52.512;13.448;2023-07-09T05:12:48;23.80;45.50
63219;DHT22;49320;52.512;13.448;2023-07-09T05:15:20;24.50;50.50
63219;DHT22;49320;52.512;13.448;2023-07-09T05:20:16;24.00;50.20
63219;DHT22;49320;52.512;13.448;2023-07-09T05:22:43;24.70;49.70
63219;DHT22;49320;52.512;13.448;2023-07-09T05:25:11;24.90;49.90
63219;DHT22;49320;52.512;13.448;2023-07-09T05:30:06;25.10;49.40
63219;DHT22;49320;52.512;13.448;2023-07-09T05:32:33;25.80;49.10
63219;DHT22;49320;52.512;13.448;2023-07-09T05:35:00;25.90;48.50
63219;DHT22;49320;52.512;13.448;2023-07-09T05:37:27;26.30;48.00
63219;DHT22;49320;52.512;13.448;2023-07-09T05:39:54;26.60;47.50
63219;DHT22;49320;52.512;13.448;2023-07-09T05:42:21;27.10;47.30
63219;DHT22;49320;52.512;13.448;2023-07-09T05:44:48;27.00;46.70
63219;DHT22;49320;52.512;13.448;2023-07-09T05:47:15;27.40;46.10
63219;DHT22;49320;52.512;13.448;2023-07-09T05:49:42;27.50;46.10
63219;DHT22;49320;52.512;13.448;2023-07-09T05:57:03;28.00;45.10
63219;DHT22;49320;52.512;13.448;2023-07-09T05:59:30;28.00;44.90
63219;DHT22;49320;52.512;13.448;2023-07-09T06:16:47;29.00;44.40
63219;DHT22;49320;52.512;13.448;2023-07-09T06:19:14;28.90;44.20
63219;DHT22;49320;52.512;13.448;2023-07-09T06:24:09;29.20;40.80
63219;DHT22;49320;52.512;13.448;2023-07-09T06:26:36;29.40;43.70
63219;DHT22;49320;52.512;13.448;2023-07-09T06:29:03;29.20;43.50
63219;DHT22;49320;52.512;13.448;2023-07-09T06:31:30;29.10;43.30
63219;DHT22;49320;52.512;13.448;2023-07-09T06:36:33;29.20;43.40
63219;DHT22;49320;52.512;13.448;2023-07-09T06:39:01;29.20;42.50
63219;DHT22;49320;52.512;13.448;2023-07-09T06:41:28;29.10;41.80
63219;DHT22;49320;52.512;13.448;2023-07-09T06:48:50;29.20;43.10
63219;DHT22;49320;52.512;13.448;2023-07-09T06:51:16;29.30;40.50
63219;DHT22;49320;52.512;13.448;2023-07-09T06:53:43;29.20;42.90
63219;DHT22;49320;52.512;13.448;2023-07-09T06:58:41;29.30;42.70
63219;DHT22;49320;52.512;13.448;2023-07-09T07:01:08;29.30;42.70
63219;DHT22;49320;52.512;13.448;2023-07-09T07:03:37;29.30;42.80
63219;DHT22;49320;52.512;13.448;2023-07-09T07:06:05;29.30;42.90
63219;DHT22;49320;52.512;13.448;2023-07-09T07:08:33;29.50;42.80
63219;DHT22;49320;52.512;13.448;2023-07-09T07:11:02;29.60;42.90
63219;DHT22;49320;52.512;13.448;2023-07-09T07:13:33;29.70;42.90
63219;DHT22;49320;52.512;13.448;2023-07-09T07:16:05;29.40;39.20
63219;DHT22;49320;52.512;13.448;2023-07-09T07:18:35;29.40;42.80
63219;DHT22;49320;52.512;13.448;2023-07-09T07:21:03;29.50;42.90
63219;DHT22;49320;52.512;13.448;2023-07-09T07:23:30;29.40;42.70
63219;DHT22;49320;52.512;13.448;2023-07-09T07:25:57;29.50;42.80
63219;DHT22;49320;52.512;13.448;2023-07-09T07:28:24;29.60;42.80
63219;DHT22;49320;52.512;13.448;2023-07-09T07:31:02;29.60;39.20
63219;DHT22;49320;52.512;13.448;2023-07-09T07:33:31;29.60;42.60
63219;DHT22;49320;52.512;13.448;2023-07-09T07:35:58;29.60;42.80
63219;DHT22;49320;52.512;13.448;2023-07-09T07:38:45;29.60;40.40
63219;DHT22;49320;52.512;13.448;2023-07-09T07:41:12;29.70;42.60
63219;DHT22;49320;52.512;13.448;2023-07-09T07:43:39;29.70;42.50
63219;DHT22;49320;52.512;13.448;2023-07-09T07:46:07;29.60;42.60
63219;DHT22;49320;52.512;13.448;2023-07-09T07:48:35;29.80;42.80
63219;DHT22;49320;52.512;13.448;2023-07-09T07:51:02;29.70;42.50
63219;DHT22;49320;52.512;13.448;2023-07-09T07:53:30;29.60;42.40
63219;DHT22;49320;52.512;13.448;2023-07-09T07:55:58;29.70;42.50
63219;DHT22;49320;52.512;13.448;2023-07-09T07:58:25;29.70;42.70
63219;DHT22;49320;52.512;13.448;2023-07-09T08:00:56;29.80;42.70
63219;DHT22;49320;52.512;13.448;2023-07-09T08:03:24;29.80;42.60
63219;DHT22;49320;52.512;13.448;2023-07-09T08:05:52;29.90;42.50
63219;DHT22;49320;52.512;13.448;2023-07-09T08:08:19;29.90;42.80
63219;DHT22;49320;52.512;13.448;2023-07-09T08:10:49;29.90;42.40
63219;DHT22;49320;52.512;13.448;2023-07-09T08:15:46;29.70;38.80
63219;DHT22;49320;52.512;13.448;2023-07-09T08:18:13;30.10;42.50
63219;DHT22;49320;52.512;13.448;2023-07-09T08:20:43;30.20;42.70
63219;DHT22;49320;52.512;13.448;2023-07-09T08:23:11;30.40;42.40
63219;DHT22;49320;52.512;13.448;2023-07-09T08:25:38;30.40;42.50
63219;DHT22;49320;52.512;13.448;2023-07-09T08:28:05;30.50;42.50
63219;DHT22;49320;52.512;13.448;2023-07-09T08:30:31;30.70;42.30
63219;DHT22;49320;52.512;13.448;2023-07-09T08:32:58;30.60;42.10
63219;DHT22;49320;52.512;13.448;2023-07-09T08:35:25;30.60;42.00
63219;DHT22;49320;52.512;13.448;2023-07-09T08:40:29;31.00;42.00
63219;DHT22;49320;52.512;13.448;2023-07-09T08:43:06;30.90;41.60
63219;DHT22;49320;52.512;13.448;2023-07-09T08:45:50;30.80;41.50
63219;DHT22;49320;52.512;13.448;2023-07-09T08:48:33;30.80;41.30
63219;DHT22;49320;52.512;13.448;2023-07-09T08:54:01;31.10;41.10
63219;DHT22;49320;52.512;13.448;2023-07-09T08:56:31;31.10;40.90
63219;DHT22;49320;52.512;13.448;2023-07-09T08:59:01;31.10;40.90
63219;DHT22;49320;52.512;13.448;2023-07-09T09:01:35;31.10;41.00
63219;DHT22;49320;52.512;13.448;2023-07-09T09:04:19;31.20;37.60
63219;DHT22;49320;52.512;13.448;2023-07-09T09:06:52;31.30;40.70
63219;DHT22;49320;52.512;13.448;2023-07-09T09:09:35;31.30;40.40
63219;DHT22;49320;52.512;13.448;2023-07-09T09:12:23;31.30;40.30
63219;DHT22;49320;52.512;13.448;2023-07-09T09:15:17;31.60;40.90
63219;DHT22;49320;52.512;13.448;2023-07-09T09:17:51;31.50;40.00
63219;DHT22;49320;52.512;13.448;2023-07-09T09:20:40;31.50;40.10
63219;DHT22;49320;52.512;13.448;2023-07-09T09:25:38;31.50;39.60
63219;DHT22;49320;52.512;13.448;2023-07-09T09:28:08;31.50;36.90
63219;DHT22;49320;52.512;13.448;2023-07-09T09:30:35;31.60;39.60
63219;DHT22;49320;52.512;13.448;2023-07-09T09:33:06;31.50;40.30
63219;DHT22;49320;52.512;13.448;2023-07-09T09:35:40;31.60;39.00
63219;DHT22;49320;52.512;13.448;2023-07-09T09:38:12;31.60;36.50
63219;DHT22;49320;52.512;13.448;2023-07-09T09:40:43;31.70;38.40
63219;DHT22;49320;52.512;13.448;2023-07-09T09:43:18;31.70;34.80
63219;DHT22;49320;52.512;13.448;2023-07-09T09:45:49;31.80;38.10
63219;DHT22;49320;52.512;13.448;2023-07-09T09:48:18;31.80;37.80
63219;DHT22;49320;52.512;13.448;2023-07-09T09:50:47;31.80;37.80
63219;DHT22;49320;52.512;13.448;2023-07-09T09:53:24;31.80;34.20
63219;DHT22;49320;52.512;13.448;2023-07-09T09:55:53;31.80;34.40
63219;DHT22;49320;52.512;13.448;2023-07-09T09:58:28;31.90;35.00
63219;DHT22;49320;52.512;13.448;2023-07-09T10:00:57;32.40;38.70
63219;DHT22;49320;52.512;13.448;2023-07-09T10:03:35;32.10;38.50
63219;DHT22;49320;52.512;13.448;2023-07-09T10:09:13;32.30;38.20
63219;DHT22;49320;52.512;13.448;2023-07-09T10:15:14;32.30;38.40
63219;DHT22;49320;52.512;13.448;2023-07-09T10:21:06;32.30;37.60
63219;DHT22;49320;52.512;13.448;2023-07-09T10:26:47;32.50;37.30
63219;DHT22;49320;52.512;13.448;2023-07-09T10:29:38;32.60;38.80
63219;DHT22;49320;52.512;13.448;2023-07-09T10:32:34;32.30;38.20
63219;DHT22;49320;52.512;13.448;2023-07-09T10:35:15;32.70;38.50
63219;DHT22;49320;52.512;13.448;2023-07-09T10:37:51;32.40;38.40
63219;DHT22;49320;52.512;13.448;2023-07-09T10:40:47;32.60;34.00
63219;DHT22;49320;52.512;13.448;2023-07-09T10:46:27;32.70;38.10
63219;DHT22;49320;52.512;13.448;2023-07-09T10:48:56;32.70;37.90
63219;DHT22;49320;52.512;13.448;2023-07-09T10:51:31;32.70;37.40
63219;DHT22;49320;52.512;13.448;2023-07-09T10:56:39;32.80;37.40
63219;DHT22;49320;52.512;13.448;2023-07-09T10:59:27;32.80;34.50
63219;DHT22;49320;52.512;13.448;2023-07-09T11:02:32;33.10;37.80
63219;DHT22;49320;52.512;13.448;2023-07-09T11:05:04;33.10;34.00
63219;DHT22;49320;52.512;13.448;2023-07-09T11:07:40;33.10;33.70
63219;DHT22;49320;52.512;13.448;2023-07-09T11:10:29;33.00;33.80
63219;DHT22;49320;52.512;13.448;2023-07-09T11:13:04;33.00;34.20
63219;DHT22;49320;52.512;13.448;2023-07-09T11:15:41;33.30;37.10
63219;DHT22;49320;52.512;13.448;2023-07-09T11:18:33;33.00;33.60
63219;DHT22;49320;52.512;13.448;2023-07-09T11:21:05;33.00;37.30
63219;DHT22;49320;52.512;13.448;2023-07-09T11:23:54;33.00;37.60
63219;DHT22;49320;52.512;13.448;2023-07-09T11:26:30;33.00;38.30
63219;DHT22;49320;52.512;13.448;2023-07-09T11:31:39;33.50;37.80
63219;DHT22;49320;52.512;13.448;2023-07-09T11:37:00;33.20;34.00
63219;DHT22;49320;52.512;13.448;2023-07-09T11:39:30;33.30;33.70
63219;DHT22;49320;52.512;13.448;2023-07-09T11:42:03;33.30;33.10
63219;DHT22;49320;52.512;13.448;2023-07-09T11:45:07;33.40;37.30
63219;DHT22;49320;52.512;13.448;2023-07-09T11:47:50;33.40;36.10
63219;DHT22;49320;52.512;13.448;2023-07-09T11:50:27;33.60;37.20
63219;DHT22;49320;52.512;13.448;2023-07-09T11:52:59;33.50;33.00
63219;DHT22;49320;52.512;13.448;2023-07-09T11:55:44;33.70;36.40
63219;DHT22;49320;52.512;13.448;2023-07-09T11:58:14;33.40;36.50
63219;DHT22;49320;52.512;13.448;2023-07-09T12:00:48;33.60;33.40
63219;DHT22;49320;52.512;13.448;2023-07-09T12:03:20;33.50;35.50
63219;DHT22;49320;52.512;13.448;2023-07-09T12:06:00;33.60;32.70
63219;DHT22;49320;52.512;13.448;2023-07-09T12:08:38;33.60;32.40
63219;DHT22;49320;52.512;13.448;2023-07-09T12:11:43;33.70;35.00
63219;DHT22;49320;52.512;13.448;2023-07-09T12:14:15;33.60;34.90
63219;DHT22;49320;52.512;13.448;2023-07-09T12:16:49;33.70;31.90
63219;DHT22;49320;52.512;13.448;2023-07-09T12:19:22;33.80;34.70
63219;DHT22;49320;52.512;13.448;2023-07-09T12:21:56;33.80;32.20
63219;DHT22;49320;52.512;13.448;2023-07-09T12:24:27;33.80;32.10
63219;DHT22;49320;52.512;13.448;2023-07-09T12:26:57;33.80;33.60
63219;DHT22;49320;52.512;13.448;2023-07-09T12:29:35;33.80;34.30
63219;DHT22;49320;52.512;13.448;2023-07-09T12:32:13;33.80;31.70
63219;DHT22;49320;52.512;13.448;2023-07-09T12:34:41;33.80;34.40
63219;DHT22;49320;52.512;13.448;2023-07-09T12:37:13;33.80;31.70
63219;DHT22;49320;52.512;13.448;2023-07-09T12:39:42;33.90;34.40
63219;DHT22;49320;52.512;13.448;2023-07-09T12:42:16;33.90;34.30
63219;DHT22;49320;52.512;13.448;2023-07-09T12:44:45;33.90;34.60
63219;DHT22;49320;52.512;13.448;2023-07-09T12:47:16;33.90;31.80
63219;DHT22;49320;52.512;13.448;2023-07-09T12:49:45;33.90;34.40
63219;DHT22;49320;52.512;13.448;2023-07-09T12:52:18;33.90;34.30
63219;DHT22;49320;52.512;13.448;2023-07-09T12:55:01;34.00;31.80
63219;DHT22;49320;52.512;13.448;2023-07-09T12:57:29;34.00;34.30
63219;DHT22;49320;52.512;13.448;2023-07-09T12:59:57;34.10;34.30
63219;DHT22;49320;52.512;13.448;2023-07-09T13:02:26;34.00;32.70
63219;DHT22;49320;52.512;13.448;2023-07-09T13:05:02;34.20;34.00
63219;DHT22;49320;52.512;13.448;2023-07-09T13:07:49;34.20;33.90
63219;DHT22;49320;52.512;13.448;2023-07-09T13:10:24;34.20;33.80
63219;DHT22;49320;52.512;13.448;2023-07-09T13:13:04;34.20;31.20
63219;DHT22;49320;52.512;13.448;2023-07-09T13:15:41;34.20;33.80
63219;DHT22;49320;52.512;13.448;2023-07-09T13:18:14;34.20;31.50
63219;DHT22;49320;52.512;13.448;2023-07-09T13:20:44;34.30;33.90
63219;DHT22;49320;52.512;13.448;2023-07-09T13:23:18;34.30;33.70
63219;DHT22;49320;52.512;13.448;2023-07-09T13:25:47;34.20;33.60
63219;DHT22;49320;52.512;13.448;2023-07-09T13:33:10;34.30;33.50
63219;DHT22;49320;52.512;13.448;2023-07-09T13:35:38;34.30;33.40
63219;DHT22;49320;52.512;13.448;2023-07-09T13:38:13;34.30;32.80
63219;DHT22;49320;52.512;13.448;2023-07-09T13:40:48;34.30;33.20
63219;DHT22;49320;52.512;13.448;2023-07-09T13:43:29;34.60;33.40
63219;DHT22;49320;52.512;13.448;2023-07-09T13:46:00;34.40;33.20
63219;DHT22;49320;52.512;13.448;2023-07-09T13:48:31;34.40;33.00
63219;DHT22;49320;52.512;13.448;2023-07-09T13:51:00;34.40;33.00
63219;DHT22;49320;52.512;13.448;2023-07-09T13:53:32;34.40;33.00
63219;DHT22;49320;52.512;13.448;2023-07-09T13:55:59;34.40;32.30
63219;DHT22;49320;52.512;13.448;2023-07-09T13:58:26;34.20;31.20
63219;DHT22;49320;52.512;13.448;2023-07-09T14:01:08;34.40;33.00
63219;DHT22;49320;52.512;13.448;2023-07-09T14:06:13;34.40;33.00
63219;DHT22;49320;52.512;13.448;2023-07-09T14:11:13;34.40;30.20
63219;DHT22;49320;52.512;13.448;2023-07-09T14:13:42;34.80;33.00
63219;DHT22;49320;52.512;13.448;2023-07-09T14:16:11;34.80;33.00
63219;DHT22;49320;52.512;13.448;2023-07-09T14:18:38;34.30;32.70
63219;DHT22;49320;52.512;13.448;2023-07-09T14:21:14;34.40;32.90
63219;DHT22;49320;52.512;13.448;2023-07-09T14:26:11;34.50;32.80
63219;DHT22;49320;52.512;13.448;2023-07-09T14:28:37;34.60;32.60
63219;DHT22;49320;52.512;13.448;2023-07-09T14:31:23;34.50;32.50
63219;DHT22;49320;52.512;13.448;2023-07-09T14:33:52;34.50;32.40
63219;DHT22;49320;52.512;13.448;2023-07-09T14:38:47;34.70;32.50
63219;DHT22;49320;52.512;13.448;2023-07-09T14:41:25;34.40;32.40
63219;DHT22;49320;52.512;13.448;2023-07-09T14:43:54;34.70;32.40
63219;DHT22;49320;52.512;13.448;2023-07-09T14:46:24;34.70;32.40
63219;DHT22;49320;52.512;13.448;2023-07-09T14:48:51;34.70;32.40
63219;DHT22;49320;52.512;13.448;2023-07-09T14:51:17;34.50;32.20
63219;DHT22;49320;52.512;13.448;2023-07-09T14:53:44;34.70;32.10
63219;DHT22;49320;52.512;13.448;2023-07-09T14:56:13;34.70;31.70
63219;DHT22;49320;52.512;13.448;2023-07-09T14:58:41;28.90;28.50
63219;DHT22;49320;52.512;13.448;2023-07-09T15:01:14;34.70;29.90
63219;DHT22;49320;52.512;13.448;2023-07-09T15:03:41;34.90;32.30
63219;DHT22;49320;52.512;13.448;2023-07-09T15:06:09;34.60;29.80
63219;DHT22;49320;52.512;13.448;2023-07-09T15:11:04;34.60;32.10
63219;DHT22;49320;52.512;13.448;2023-07-09T15:13:35;34.60;32.10
63219;DHT22;49320;52.512;13.448;2023-07-09T15:16:04;34.70;32.00
63219;DHT22;49320;52.512;13.448;2023-07-09T15:18:31;34.80;32.10
63219;DHT22;49320;52.512;13.448;2023-07-09T15:21:02;34.80;30.40
63219;DHT22;49320;52.512;13.448;2023-07-09T15:23:36;34.80;29.80
63219;DHT22;49320;52.512;13.448;2023-07-09T15:26:13;35.10;32.30
63219;DHT22;49320;52.512;13.448;2023-07-09T15:31:11;34.90;32.10
63219;DHT22;49320;52.512;13.448;2023-07-09T15:33:38;34.90;32.30
63219;DHT22;49320;52.512;13.448;2023-07-09T15:36:10;34.80;30.00
63219;DHT22;49320;52.512;13.448;2023-07-09T15:38:38;34.80;32.10
63219;DHT22;49320;52.512;13.448;2023-07-09T15:41:11;34.80;29.80
63219;DHT22;49320;52.512;13.448;2023-07-09T15:43:42;35.30;32.20
63219;DHT22;49320;52.512;13.448;2023-07-09T15:46:16;34.80;32.10
63219;DHT22;49320;52.512;13.448;2023-07-09T15:48:46;34.80;32.00
63219;DHT22;49320;52.512;13.448;2023-07-09T15:51:13;34.80;31.90
63219;DHT22;49320;52.512;13.448;2023-07-09T15:53:40;34.80;32.00
63219;DHT22;49320;52.512;13.448;2023-07-09T15:56:16;34.80;32.00
63219;DHT22;49320;52.512;13.448;2023-07-09T15:58:48;34.90;32.00
63219;DHT22;49320;52.512;13.448;2023-07-09T16:01:18;34.80;31.80
63219;DHT22;49320;52.512;13.448;2023-07-09T16:03:54;34.80;29.50
63219;DHT22;49320;52.512;13.448;2023-07-09T16:11:22;34.80;31.70
63219;DHT22;49320;52.512;13.448;2023-07-09T16:13:51;34.80;31.80
63219;DHT22;49320;52.512;13.448;2023-07-09T16:16:22;34.70;29.50
63219;DHT22;49320;52.512;13.448;2023-07-09T16:21:30;35.10;29.70
63219;DHT22;49320;52.512;13.448;2023-07-09T16:23:59;34.60;31.70
63219;DHT22;49320;52.512;13.448;2023-07-09T16:33:52;34.70;31.80
63219;DHT22;49320;52.512;13.448;2023-07-09T16:36:19;34.60;31.80
63219;DHT22;49320;52.512;13.448;2023-07-09T16:38:46;34.60;31.80
63219;DHT22;49320;52.512;13.448;2023-07-09T16:43:41;34.50;31.80
63219;DHT22;49320;52.512;13.448;2023-07-09T16:46:22;34.60;31.80
63219;DHT22;49320;52.512;13.448;2023-07-09T16:48:51;34.50;31.70
63219;DHT22;49320;52.512;13.448;2023-07-09T16:51:21;34.60;30.80
63219;DHT22;49320;52.512;13.448;2023-07-09T16:53:48;34.60;31.90
63219;DHT22;49320;52.512;13.448;2023-07-09T17:01:10;34.60;32.00
63219;DHT22;49320;52.512;13.448;2023-07-09T17:03:38;34.60;32.00
63219;DHT22;49320;52.512;13.448;2023-07-09T17:06:05;34.50;32.00
63219;DHT22;49320;52.512;13.448;2023-07-09T17:08:32;34.50;32.00
63219;DHT22;49320;52.512;13.448;2023-07-09T17:11:01;34.50;32.00
63219;DHT22;49320;52.512;13.448;2023-07-09T17:13:29;34.70;32.20
63219;DHT22;49320;52.512;13.448;2023-07-09T17:18:26;34.50;29.70
63219;DHT22;49320;52.512;13.448;2023-07-09T17:20:56;34.50;29.70
63219;DHT22;49320;52.512;13.448;2023-07-09T17:23:26;34.60;32.10
63219;DHT22;49320;52.512;13.448;2023-07-09T17:25:56;34.50;29.70
63219;DHT22;49320;52.512;13.448;2023-07-09T17:28:26;34.90;32.20
63219;DHT22;49320;52.512;13.448;2023-07-09T17:31:00;34.40;32.20
63219;DHT22;49320;52.512;13.448;2023-07-09T17:35:56;34.40;32.40
63219;DHT22;49320;52.512;13.448;2023-07-09T17:38:33;34.40;32.50
63219;DHT22;49320;52.512;13.448;2023-07-09T17:41:01;34.30;31.40
63219;DHT22;49320;52.512;13.448;2023-07-09T17:43:29;34.30;32.70
63219;DHT22;49320;52.512;13.448;2023-07-09T17:48:28;34.10;30.10
63219;DHT22;49320;52.512;13.448;2023-07-09T17:50:57;34.40;31.60
63219;DHT22;49320;52.512;13.448;2023-07-09T17:53:28;34.00;30.30
63219;DHT22;49320;52.512;13.448;2023-07-09T17:58:28;33.90;32.40
63219;DHT22;49320;52.512;13.448;2023-07-09T18:01:00;34.20;32.20
63219;DHT22;49320;52.512;13.448;2023-07-09T18:05:57;33.60;31.50
63219;DHT22;49320;52.512;13.448;2023-07-09T18:08:24;33.60;33.40
63219;DHT22;49320;52.512;13.448;2023-07-09T18:10:51;33.40;30.60
63219;DHT22;49320;52.512;13.448;2023-07-09T18:13:21;33.40;31.70
63219;DHT22;49320;52.512;13.448;2023-07-09T18:15:52;33.30;31.00
63219;DHT22;49320;52.512;13.448;2023-07-09T18:25:44;33.00;33.70
63219;DHT22;49320;52.512;13.448;2023-07-09T18:28:27;33.10;31.00
63219;DHT22;49320;52.512;13.448;2023-07-09T18:41:22;32.30;31.80
63219;DHT22;49320;52.512;13.448;2023-07-09T18:43:49;32.40;34.00
63219;DHT22;49320;52.512;13.448;2023-07-09T18:48:44;32.20;34.20
63219;DHT22;49320;52.512;13.448;2023-07-09T18:51:11;32.00;31.00
63219;DHT22;49320;52.512;13.448;2023-07-09T19:01:17;31.90;31.50
63219;DHT22;49320;52.512;13.448;2023-07-09T19:16:21;31.40;32.20
63219;DHT22;49320;52.512;13.448;2023-07-09T19:23:47;31.10;35.20
63219;DHT22;49320;52.512;13.448;2023-07-09T19:31:08;30.90;36.30
63219;DHT22;49320;52.512;13.448;2023-07-09T19:33:37;30.90;32.90
63219;DHT22;49320;52.512;13.448;2023-07-09T19:36:24;30.80;33.00
63219;DHT22;49320;52.512;13.448;2023-07-09T19:38:53;30.70;33.00
63219;DHT22;49320;52.512;13.448;2023-07-09T19:41:22;30.70;33.20
63219;DHT22;49320;52.512;13.448;2023-07-09T19:46:22;30.30;33.10
63219;DHT22;49320;52.512;13.448;2023-07-09T19:51:19;30.30;37.00
63219;DHT22;49320;52.512;13.448;2023-07-09T19:56:13;30.10;37.10
63219;DHT22;49320;52.512;13.448;2023-07-09T20:01:12;30.10;33.60
63219;DHT22;49320;52.512;13.448;2023-07-09T20:03:39;30.10;37.30
63219;DHT22;49320;52.512;13.448;2023-07-09T20:06:07;30.00;33.70
63219;DHT22;49320;52.512;13.448;2023-07-09T20:08:36;29.90;36.00
63219;DHT22;49320;52.512;13.448;2023-07-09T20:13:33;29.80;33.60